createdAt,value
2018-05-24T00:00:01.347Z,13.83
2018-05-24T00:02:27.586Z,13.50
2018-05-24T00:04:53.830Z,13.17
2018-05-24T00:07:20.082Z,20.30
2018-05-24T00:09:47.054Z,16.33
2018-05-24T00:12:13.314Z,14.83
2018-05-24T00:14:39.576Z,21.20
2018-05-24T00:17:06.524Z,14.17
2018-05-24T00:19:32.730Z,15.07
2018-05-24T00:21:58.988Z,15.97
2018-05-24T00:24:25.946Z,15.30
2018-05-24T00:26:52.204Z,16.50
2018-05-24T00:29:18.451Z,15.43
2018-05-24T00:31:44.689Z,18.20
2018-05-24T00:34:10.929Z,15.37
2018-05-24T00:36:37.925Z,14.23
2018-05-24T00:39:04.213Z,14.83
2018-05-24T00:41:31.181Z,15.33
2018-05-24T00:43:57.435Z,17.73
2018-05-24T00:46:23.690Z,15.80
2018-05-24T00:48:49.927Z,17.40
2018-05-24T00:51:16.132Z,15.50
2018-05-24T00:53:42.351Z,15.43
2018-05-24T00:56:08.555Z,15.40
2018-05-24T00:58:34.799Z,19.10
2018-05-24T01:01:01.027Z,16.50
2018-05-24T01:03:27.275Z,16.83
2018-05-24T01:05:53.513Z,15.17
2018-05-24T01:08:19.753Z,15.67
2018-05-24T01:10:45.994Z,15.57
2018-05-24T01:13:13.027Z,16.43
2018-05-24T01:15:39.284Z,16.90
2018-05-24T01:18:05.501Z,18.33
2018-05-24T01:20:32.487Z,18.70
2018-05-24T01:22:58.684Z,17.77
2018-05-24T01:25:24.918Z,15.80
2018-05-24T01:27:51.907Z,16.63
2018-05-24T01:30:18.113Z,17.10
2018-05-24T01:32:44.404Z,15.97
2018-05-24T01:35:11.385Z,15.00
2018-05-24T01:37:49.725Z,14.00
2018-05-24T01:40:15.924Z,19.77
2018-05-24T01:42:42.159Z,14.37
2018-05-24T01:45:08.408Z,14.57
2018-05-24T01:47:34.683Z,14.47
2018-05-24T01:50:01.669Z,14.97
2018-05-24T01:52:27.880Z,15.73
2018-05-24T01:54:54.084Z,14.37
2018-05-24T01:57:20.368Z,14.27
2018-05-24T01:59:46.591Z,13.17
2018-05-24T02:02:12.809Z,14.13
2018-05-24T02:04:39.078Z,13.87
2018-05-24T02:07:05.304Z,14.30
2018-05-24T02:09:31.560Z,16.90
2018-05-24T02:11:57.799Z,18.60
2018-05-24T02:14:24.014Z,14.30
2018-05-24T02:16:50.249Z,14.57
2018-05-24T02:19:16.560Z,18.33
2018-05-24T02:21:43.508Z,16.20
2018-05-24T02:24:10.505Z,14.70
2018-05-24T02:26:36.716Z,12.90
2018-05-24T02:29:02.977Z,12.70
2018-05-24T02:31:29.208Z,12.40
2018-05-24T02:33:55.456Z,14.63
2018-05-24T02:36:21.673Z,13.07
2018-05-24T02:38:47.926Z,13.33
2018-05-24T02:41:14.919Z,14.67
2018-05-24T02:43:41.186Z,13.40
2018-05-24T02:46:07.413Z,13.13
2018-05-24T02:48:34.427Z,11.53
2018-05-24T02:51:00.675Z,13.17
2018-05-24T02:53:26.937Z,12.00
2018-05-24T02:55:53.929Z,12.20
2018-05-24T02:58:20.172Z,10.90
2018-05-24T03:00:46.418Z,11.23
2018-05-24T03:03:12.702Z,13.30
2018-05-24T03:05:38.930Z,10.97
2018-05-24T03:08:05.166Z,11.27
2018-05-24T03:10:31.394Z,9.90
2018-05-24T03:12:57.631Z,12.30
2018-05-24T03:15:23.919Z,11.03
2018-05-24T03:17:50.183Z,11.90
2018-05-24T03:20:16.416Z,10.17
2018-05-24T03:22:42.641Z,12.07
2018-05-24T03:25:08.896Z,11.40
2018-05-24T03:27:35.142Z,10.10
2018-05-24T03:30:02.110Z,10.70
2018-05-24T03:32:28.367Z,9.67
2018-05-24T03:34:54.637Z,11.07
2018-05-24T03:37:20.926Z,10.77
2018-05-24T03:39:47.191Z,11.97
2018-05-24T03:42:13.479Z,10.10
2018-05-24T03:44:39.704Z,11.43
2018-05-24T03:47:05.923Z,13.73
2018-05-24T03:49:32.193Z,11.00
2018-05-24T03:51:58.453Z,13.53
2018-05-24T03:54:25.414Z,11.27
2018-05-24T03:56:51.632Z,11.50
2018-05-24T04:02:47.089Z,12.80
2018-05-24T04:05:13.369Z,14.00
2018-05-24T04:07:39.570Z,13.90
2018-05-24T04:10:05.867Z,12.50
2018-05-24T04:12:32.103Z,12.50
2018-05-24T04:14:58.332Z,10.73
2018-05-24T04:17:24.581Z,10.10
2018-05-24T04:19:50.785Z,9.63
2018-05-24T04:22:17.051Z,10.00
2018-05-24T04:24:43.262Z,10.23
2018-05-24T04:27:09.518Z,9.60
2018-05-24T04:29:35.730Z,9.80
2018-05-24T04:32:01.980Z,9.30
2018-05-24T04:34:28.221Z,8.77
2018-05-24T04:36:55.194Z,9.40
2018-05-24T04:39:21.411Z,10.53
2018-05-24T04:41:47.665Z,10.73
2018-05-24T04:44:13.892Z,9.50
2018-05-24T04:46:40.151Z,11.90
2018-05-24T04:49:06.396Z,10.40
2018-05-24T04:51:32.660Z,10.93
2018-05-24T04:53:58.907Z,10.27
2018-05-24T04:56:25.092Z,11.40
2018-05-24T04:58:52.038Z,10.20
2018-05-24T05:01:19.023Z,10.37
2018-05-24T05:03:45.227Z,10.10
2018-05-24T05:06:12.191Z,12.97
2018-05-24T05:08:38.404Z,10.40
2018-05-24T05:11:04.657Z,11.47
2018-05-24T05:13:31.000Z,12.70
2018-05-24T05:15:57.099Z,11.70
2018-05-24T05:18:23.322Z,20.03
2018-05-24T05:20:49.573Z,11.97
2018-05-24T05:23:15.872Z,13.17
2018-05-24T05:25:42.029Z,14.60
2018-05-24T05:28:08.247Z,13.07
2018-05-24T05:30:34.577Z,13.20
2018-05-24T05:33:00.753Z,13.27
2018-05-24T05:35:26.979Z,12.07
2018-05-24T05:37:53.179Z,13.20
2018-05-24T05:40:19.370Z,14.60
2018-05-24T05:42:45.583Z,13.90
2018-05-24T05:45:11.838Z,12.70
2018-05-24T05:47:38.093Z,14.30
2018-05-24T05:50:04.307Z,12.40
2018-05-24T05:52:30.537Z,11.73
2018-05-24T05:54:56.768Z,13.13
2018-05-24T05:57:22.980Z,12.50
2018-05-24T05:59:49.169Z,12.30
2018-05-24T06:02:16.130Z,13.00
2018-05-24T06:04:43.082Z,13.90
2018-05-24T06:07:09.324Z,12.60
2018-05-24T06:09:35.565Z,12.00
2018-05-24T06:12:01.817Z,10.93
2018-05-24T06:14:28.007Z,12.30
2018-05-24T06:16:54.249Z,12.33
2018-05-24T06:19:20.435Z,11.70
2018-05-24T06:21:47.395Z,13.37
2018-05-24T06:24:13.645Z,10.90
2018-05-24T06:26:39.898Z,11.30
2018-05-24T06:29:06.112Z,10.80
2018-05-24T06:31:32.370Z,9.53
2018-05-24T06:33:58.563Z,9.70
2018-05-24T06:36:24.812Z,13.30
2018-05-24T06:38:51.088Z,22.13
2018-05-24T06:41:18.027Z,16.53
2018-05-24T06:43:45.002Z,15.77
2018-05-24T06:46:11.247Z,14.23
2018-05-24T06:48:37.523Z,14.70
2018-05-24T06:51:04.495Z,11.40
2018-05-24T06:53:30.700Z,11.00
2018-05-24T06:55:57.710Z,13.43
2018-05-24T06:58:23.934Z,12.63
2018-05-24T07:00:50.160Z,11.13
2018-05-24T07:03:16.395Z,10.97
2018-05-24T07:05:42.828Z,10.93
2018-05-24T07:08:09.057Z,11.23
2018-05-24T07:10:35.311Z,9.20
2018-05-24T07:13:02.334Z,9.97
2018-05-24T07:15:28.527Z,9.07
2018-05-24T07:17:54.740Z,9.57
2018-05-24T07:20:20.942Z,7.77
2018-05-24T07:22:47.922Z,8.33
2018-05-24T07:25:14.128Z,8.83
2018-05-24T07:27:40.408Z,8.57
2018-05-24T07:30:06.674Z,5.00
2018-05-24T07:32:32.894Z,5.07
2018-05-24T07:34:59.890Z,5.73
2018-05-24T07:37:26.126Z,7.53
2018-05-24T07:39:52.369Z,5.90
2018-05-24T07:42:18.619Z,12.23
2018-05-24T07:44:44.826Z,9.73
2018-05-24T07:47:11.055Z,9.60
2018-05-24T07:49:37.281Z,11.10
2018-05-24T07:52:03.535Z,10.30
2018-05-24T07:54:29.741Z,8.60
2018-05-24T07:56:56.005Z,11.93
2018-05-24T07:59:22.983Z,8.80
2018-05-24T08:01:49.253Z,8.60
2018-05-24T08:04:15.496Z,8.00
2018-05-24T08:06:42.472Z,7.30
2018-05-24T08:09:08.702Z,7.77
2018-05-24T08:11:34.943Z,6.80
2018-05-24T08:14:01.198Z,6.53
2018-05-24T08:16:27.424Z,7.77
2018-05-24T08:18:53.637Z,6.37
2018-05-24T08:21:19.889Z,6.20
2018-05-24T08:23:46.145Z,6.00
2018-05-24T08:26:12.358Z,5.87
2018-05-24T08:28:38.614Z,6.63
2018-05-24T08:31:05.553Z,6.33
2018-05-24T08:33:31.748Z,5.57
2018-05-24T08:35:57.972Z,6.23
2018-05-24T08:38:24.211Z,6.07
2018-05-24T08:40:50.484Z,6.20
2018-05-24T08:43:17.407Z,5.70
2018-05-24T08:45:44.373Z,6.47
2018-05-24T08:48:10.614Z,6.17
2018-05-24T08:50:36.840Z,8.20
2018-05-24T08:53:03.062Z,8.07
2018-05-24T08:55:29.290Z,8.20
2018-05-24T08:57:55.513Z,5.87
2018-05-24T09:00:21.789Z,6.50
2018-05-24T09:02:47.994Z,7.50
2018-05-24T09:05:14.212Z,7.80
2018-05-24T09:07:40.470Z,7.03
2018-05-24T09:10:06.723Z,8.83
2018-05-24T09:12:32.974Z,8.57
2018-05-24T09:14:59.170Z,10.30
2018-05-24T09:17:25.444Z,12.00
2018-05-24T09:19:51.699Z,10.00
2018-05-24T09:22:17.938Z,10.07
2018-05-24T09:24:44.165Z,12.73
2018-05-24T09:27:10.391Z,15.73
2018-05-24T09:29:36.602Z,18.13
2018-05-24T09:32:02.855Z,14.97
2018-05-24T09:34:29.066Z,15.00
2018-05-24T09:36:55.244Z,19.47
2018-05-24T09:39:22.252Z,21.53
2018-05-24T09:41:48.474Z,25.03
2018-05-24T09:44:14.717Z,19.20
2018-05-24T09:46:40.926Z,21.87
2018-05-24T09:49:07.142Z,18.60
2018-05-24T09:51:33.397Z,17.40
2018-05-24T09:53:59.642Z,22.53
2018-05-24T09:56:25.890Z,21.57
2018-05-24T09:58:52.841Z,23.00
2018-05-24T10:01:19.801Z,19.90
2018-05-24T10:03:46.011Z,21.33
2018-05-24T10:06:12.938Z,23.00
2018-05-24T10:08:39.167Z,21.77
2018-05-24T10:11:06.139Z,18.47
2018-05-24T10:13:32.381Z,19.57
2018-05-24T10:15:58.582Z,18.73
2018-05-24T10:18:25.577Z,18.33
2018-05-24T10:20:51.832Z,17.70
2018-05-24T10:23:18.071Z,17.40
2018-05-24T10:25:44.351Z,18.03
2018-05-24T10:28:10.572Z,16.77
2018-05-24T10:30:36.777Z,16.10
2018-05-24T10:33:03.751Z,18.47
2018-05-24T10:35:29.999Z,18.13
2018-05-24T10:37:56.248Z,19.90
2018-05-24T10:40:22.474Z,16.17
2018-05-24T10:42:48.674Z,14.93
2018-05-24T10:45:14.883Z,13.33
2018-05-24T10:47:44.567Z,16.40
2018-05-24T10:50:11.510Z,12.73
2018-05-24T10:52:37.745Z,13.03
2018-05-24T10:55:03.965Z,13.57
2018-05-24T10:57:30.940Z,11.20
2018-05-24T10:59:57.139Z,11.83
2018-05-24T11:02:24.115Z,12.33
2018-05-24T11:04:50.322Z,13.37
2018-05-24T11:07:16.540Z,8.40
2018-05-24T11:09:43.546Z,7.77
2018-05-24T11:12:09.781Z,9.63
2018-05-24T11:14:36.028Z,8.83
2018-05-24T11:17:03.006Z,8.20
2018-05-24T11:19:29.237Z,7.53
2018-05-24T11:21:55.496Z,6.43
2018-05-24T11:24:21.703Z,7.60
2018-05-24T11:26:47.906Z,8.97
2018-05-24T11:29:14.160Z,8.37
2018-05-24T11:31:40.461Z,11.50
2018-05-24T11:34:06.607Z,14.27
2018-05-24T11:36:32.852Z,13.50
2018-05-24T11:38:59.102Z,7.57
2018-05-24T11:41:25.346Z,11.77
2018-05-24T11:43:51.550Z,10.43
2018-05-24T11:46:17.794Z,9.40
2018-05-24T11:48:44.051Z,8.87
2018-05-24T11:51:11.068Z,10.10
2018-05-24T11:53:37.290Z,9.23
2018-05-24T11:56:03.515Z,11.27
2018-05-24T11:58:29.755Z,10.07
2018-05-24T12:00:55.968Z,10.50
2018-05-24T12:03:22.172Z,11.97
2018-05-24T12:05:48.408Z,10.20
2018-05-24T12:08:14.632Z,10.30
2018-05-24T12:10:40.850Z,8.97
2018-05-24T12:13:07.053Z,11.27
2018-05-24T12:15:34.039Z,8.10
2018-05-24T12:18:00.268Z,10.30
2018-05-24T12:20:26.518Z,9.40
2018-05-24T12:22:52.733Z,8.33
2018-05-24T12:25:18.985Z,7.10
2018-05-24T12:27:45.186Z,7.97
2018-05-24T12:30:11.406Z,9.03
2018-05-24T12:32:37.628Z,8.57
2018-05-24T12:35:03.851Z,8.20
2018-05-24T12:37:30.048Z,6.90
2018-05-24T12:39:56.313Z,8.97
2018-05-24T12:42:22.550Z,7.00
2018-05-24T12:44:48.791Z,7.50
2018-05-24T12:47:14.996Z,8.10
2018-05-24T12:49:41.248Z,6.90
2018-05-24T12:52:07.476Z,8.60
2018-05-24T12:54:33.719Z,7.30
2018-05-24T12:56:59.978Z,8.30
2018-05-24T12:59:26.931Z,6.83
2018-05-24T13:01:53.187Z,6.63
2018-05-24T13:04:19.478Z,6.80
2018-05-24T13:06:45.688Z,8.37
2018-05-24T13:09:11.959Z,10.13
2018-05-24T13:11:38.234Z,6.17
2018-05-24T13:14:04.488Z,8.30
2018-05-24T13:16:31.431Z,6.20
2018-05-24T13:18:58.435Z,5.90
2018-05-24T13:21:24.683Z,5.63
2018-05-24T13:23:50.925Z,5.50
2018-05-24T13:26:17.901Z,5.60
2018-05-24T13:28:44.142Z,5.83
2018-05-24T13:31:10.368Z,5.90
2018-05-24T13:33:36.620Z,6.93
2018-05-24T13:36:02.893Z,4.83
2018-05-24T13:38:29.869Z,10.80
2018-05-24T13:40:56.113Z,5.80
2018-05-24T13:43:22.384Z,4.53
2018-05-24T13:45:48.608Z,3.73
2018-05-24T13:48:14.861Z,3.70
2018-05-24T13:50:41.812Z,4.60
2018-05-24T13:53:08.054Z,4.00
2018-05-24T13:55:34.305Z,4.40
2018-05-24T13:58:00.541Z,4.70
2018-05-24T14:00:29.637Z,4.27
2018-05-24T14:02:55.940Z,4.47
2018-05-24T14:05:22.168Z,5.67
2018-05-24T14:07:48.403Z,3.93
2018-05-24T14:10:14.684Z,4.67
2018-05-24T14:12:40.914Z,5.57
2018-05-24T14:15:07.106Z,4.83
2018-05-24T14:17:33.371Z,4.90
2018-05-24T14:19:59.614Z,5.50
2018-05-24T14:22:26.605Z,4.33
2018-05-24T14:24:52.843Z,8.30
2018-05-24T14:27:19.122Z,4.37
2018-05-24T14:29:45.409Z,4.67
2018-05-24T14:32:11.698Z,4.50
2018-05-24T14:34:37.942Z,5.23
2018-05-24T14:37:04.180Z,3.70
2018-05-24T14:39:30.434Z,4.13
2018-05-24T14:41:56.617Z,4.10
2018-05-24T14:44:22.869Z,4.50
2018-05-24T14:46:49.104Z,3.80
2018-05-24T14:49:15.375Z,3.83
2018-05-24T14:51:41.632Z,3.83
2018-05-24T14:54:07.850Z,4.00
2018-05-24T14:56:34.131Z,4.47
2018-05-24T14:59:00.368Z,7.30
2018-05-24T15:01:26.625Z,3.80
2018-05-24T15:03:52.841Z,4.53
2018-05-24T15:06:19.142Z,6.33
2018-05-24T15:08:45.369Z,8.97
2018-05-24T15:11:11.596Z,4.33
2018-05-24T15:13:52.099Z,4.30
2018-05-24T15:16:19.105Z,5.27
2018-05-24T15:18:45.337Z,3.60
2018-05-24T15:21:11.590Z,6.83
2018-05-24T15:23:38.569Z,4.57
2018-05-24T15:26:04.778Z,3.37
2018-05-24T15:28:31.066Z,3.13
2018-05-24T15:30:57.322Z,3.07
2018-05-24T15:33:23.621Z,2.87
2018-05-24T15:35:49.824Z,3.40
2018-05-24T15:38:16.062Z,2.70
2018-05-24T15:40:42.338Z,3.13
2018-05-24T15:43:08.558Z,2.53
2018-05-24T15:45:34.825Z,3.13
2018-05-24T15:48:01.124Z,3.43
2018-05-24T15:50:27.355Z,3.43
2018-05-24T15:52:54.338Z,3.07
2018-05-24T15:55:20.589Z,3.13
2018-05-24T15:57:46.830Z,3.30
2018-05-24T16:00:13.051Z,4.33
2018-05-24T16:02:39.321Z,2.97
2018-05-24T16:05:05.564Z,3.67
2018-05-24T16:07:31.796Z,3.30
2018-05-24T16:09:58.033Z,3.03
2018-05-24T16:12:24.266Z,3.37
2018-05-24T16:14:50.514Z,4.10
2018-05-24T16:17:16.739Z,2.90
2018-05-24T16:19:43.004Z,3.40
2018-05-24T16:22:10.032Z,3.20
2018-05-24T16:24:36.281Z,2.83
2018-05-24T16:27:03.278Z,3.33
2018-05-24T16:29:29.595Z,3.33
2018-05-24T16:31:55.874Z,3.60
2018-05-24T16:34:22.924Z,8.17
2018-05-24T16:36:49.985Z,11.30
2018-05-24T16:39:16.273Z,12.80
2018-05-24T16:41:43.028Z,10.73
2018-05-24T16:44:10.065Z,10.13
2018-05-24T16:46:36.431Z,9.10
2018-05-24T16:49:03.503Z,11.10
2018-05-24T16:51:29.799Z,12.90
2018-05-24T16:53:56.870Z,13.50
2018-05-24T16:56:23.906Z,10.93
2018-05-24T16:58:50.198Z,11.60
2018-05-24T17:01:16.952Z,10.43
2018-05-24T17:03:43.222Z,12.03
2018-05-24T17:06:09.585Z,11.33
2018-05-24T17:08:35.852Z,9.10
2018-05-24T17:11:02.911Z,10.77
2018-05-24T17:13:29.171Z,15.50
2018-05-24T17:15:55.494Z,7.90
2018-05-24T17:18:22.481Z,8.37
2018-05-24T17:20:48.743Z,24.43
2018-05-24T17:23:15.013Z,7.73
2018-05-24T17:25:41.262Z,6.37
2018-05-24T17:28:07.554Z,4.50
2018-05-24T17:30:33.824Z,4.97
2018-05-24T17:33:00.095Z,4.80
2018-05-24T17:35:26.380Z,5.30
2018-05-24T17:37:52.675Z,5.50
2018-05-24T17:40:18.969Z,6.10
2018-05-24T17:42:45.289Z,10.33
2018-05-24T17:45:12.336Z,14.20
2018-05-24T17:47:39.392Z,12.80
2018-05-24T17:50:05.717Z,14.37
2018-05-24T17:52:32.741Z,16.83
2018-05-24T17:54:59.007Z,13.60
2018-05-24T17:57:25.335Z,14.60
2018-05-24T17:59:52.341Z,13.20
2018-05-24T18:02:18.647Z,12.70
2018-05-24T18:04:44.966Z,12.33
2018-05-24T18:07:11.188Z,20.77
2018-05-24T18:09:37.501Z,10.87
2018-05-24T18:12:03.699Z,11.77
2018-05-24T18:14:29.938Z,10.47
2018-05-24T18:16:56.223Z,10.70
2018-05-24T18:19:22.521Z,10.97
2018-05-24T18:21:48.806Z,11.50
2018-05-24T18:24:15.042Z,10.93
2018-05-24T18:26:41.323Z,9.13
2018-05-24T18:29:07.601Z,9.30
2018-05-24T18:31:33.909Z,8.70
2018-05-24T18:34:00.173Z,10.73
2018-05-24T18:36:27.252Z,10.07
2018-05-24T18:38:53.511Z,8.93
2018-05-24T18:41:19.797Z,9.60
2018-05-24T18:43:46.103Z,9.87
2018-05-24T18:46:12.360Z,8.70
2018-05-24T18:48:38.673Z,9.70
2018-05-24T18:51:05.686Z,9.00
2018-05-24T18:53:31.955Z,8.77
2018-05-24T18:55:58.953Z,8.40
2018-05-24T18:58:25.255Z,11.70
2018-05-24T19:00:51.552Z,8.30
2018-05-24T19:03:18.589Z,9.33
2018-05-24T19:05:44.877Z,7.73
2018-05-24T19:08:11.245Z,7.67
2018-05-24T19:10:37.530Z,11.73
2018-05-24T19:13:03.759Z,8.60
2018-05-24T19:15:30.055Z,9.73
2018-05-24T19:17:56.330Z,10.37
2018-05-24T19:20:22.548Z,8.00
2018-05-24T19:22:48.832Z,7.50
2018-05-24T19:25:15.086Z,8.50
2018-05-24T19:27:41.321Z,7.90
2018-05-24T19:30:07.533Z,10.87
2018-05-24T19:32:34.531Z,6.77
2018-05-24T19:35:00.747Z,8.20
2018-05-24T19:37:26.972Z,7.47
2018-05-24T19:39:53.204Z,7.40
2018-05-24T19:42:19.464Z,6.17
2018-05-24T19:44:45.736Z,6.70
2018-05-24T19:47:11.961Z,6.33
2018-05-24T19:49:38.223Z,6.80
2018-05-24T19:52:04.439Z,7.00
2018-05-24T19:54:30.738Z,5.90
2018-05-24T19:56:56.945Z,11.80
2018-05-24T19:59:23.186Z,7.90
2018-05-24T20:01:50.189Z,12.20
2018-05-24T20:04:16.723Z,7.33
2018-05-24T20:06:43.316Z,8.93
2018-05-24T20:09:09.860Z,8.90
2018-05-24T20:11:36.398Z,8.80
2018-05-24T20:14:02.970Z,9.03
2018-05-24T20:16:29.511Z,11.47
2018-05-24T20:18:56.056Z,8.53
2018-05-24T20:21:22.596Z,10.90
2018-05-24T20:23:49.139Z,11.47
2018-05-24T20:26:15.693Z,15.30
2018-05-24T20:28:42.984Z,9.97
2018-05-24T20:31:09.785Z,9.87
2018-05-24T20:33:37.074Z,10.33
2018-05-24T20:36:03.617Z,13.07
2018-05-24T20:38:30.185Z,8.80
2018-05-24T20:40:56.700Z,8.70
2018-05-24T20:43:23.100Z,8.37
2018-05-24T20:45:49.389Z,8.17
2018-05-24T20:48:15.690Z,7.93
2018-05-24T20:50:41.977Z,8.63
2018-05-24T20:53:08.264Z,9.60
2018-05-24T20:55:34.551Z,8.77
2018-05-24T20:58:00.837Z,9.90
2018-05-24T21:00:27.830Z,10.07
2018-05-24T21:02:54.113Z,10.17
2018-05-24T21:05:21.109Z,9.57
2018-05-24T21:07:47.376Z,8.80
2018-05-24T21:10:13.695Z,10.60
2018-05-24T21:12:39.988Z,13.13
2018-05-24T21:15:06.274Z,12.43
2018-05-24T21:17:32.533Z,13.80
2018-05-24T21:19:58.866Z,11.33
2018-05-24T21:22:25.116Z,11.00
2018-05-24T21:24:51.395Z,11.07
2018-05-24T21:27:17.659Z,11.17
2018-05-24T21:29:43.914Z,13.43
2018-05-24T21:32:10.176Z,11.17
2018-05-24T21:34:36.435Z,15.90
2018-05-24T21:37:02.699Z,15.40
2018-05-24T21:39:28.961Z,12.77
2018-05-24T21:41:55.251Z,12.43
2018-05-24T21:44:21.490Z,10.83
2018-05-24T21:46:47.750Z,12.17
2018-05-24T21:49:14.020Z,10.97
2018-05-24T21:51:40.271Z,11.03
2018-05-24T21:54:06.507Z,11.07
2018-05-24T21:56:32.760Z,12.57
2018-05-24T21:58:59.010Z,10.70
2018-05-24T22:01:26.008Z,17.33
2018-05-24T22:03:52.263Z,11.00
2018-05-24T22:06:18.502Z,10.07
2018-05-24T22:08:44.755Z,9.20
2018-05-24T22:11:11.003Z,10.40
2018-05-24T22:13:37.257Z,9.67
2018-05-24T22:16:03.561Z,7.30
2018-05-24T22:18:29.772Z,6.63
2018-05-24T22:20:56.035Z,6.40
2018-05-24T22:23:22.281Z,6.17
2018-05-24T22:25:48.545Z,4.70
2018-05-24T22:28:15.537Z,6.07
2018-05-24T22:30:41.796Z,5.00
2018-05-24T22:33:08.056Z,10.63
2018-05-24T22:35:34.320Z,4.67
2018-05-24T22:38:00.572Z,3.70
2018-05-24T22:40:26.839Z,3.63
2018-05-24T22:42:53.841Z,3.80
2018-05-24T22:45:20.057Z,5.30
2018-05-24T22:47:46.292Z,3.73
2018-05-24T22:50:12.529Z,3.77
2018-05-24T22:52:38.730Z,4.87
2018-05-24T22:55:04.978Z,10.13
2018-05-24T22:57:31.234Z,4.17
2018-05-24T22:59:58.156Z,4.43
2018-05-24T23:02:24.370Z,4.57
2018-05-24T23:04:50.622Z,6.80
2018-05-24T23:07:16.843Z,8.40
2018-05-24T23:09:43.042Z,5.33
2018-05-24T23:12:09.299Z,6.73
2018-05-24T23:14:35.532Z,9.20
2018-05-24T23:17:01.780Z,9.03
2018-05-24T23:19:28.744Z,5.00
2018-05-24T23:21:54.919Z,4.80
2018-05-24T23:24:21.186Z,4.73
2018-05-24T23:26:48.131Z,6.20
2018-05-24T23:29:15.106Z,5.00
2018-05-24T23:31:41.328Z,4.17
2018-05-24T23:34:07.540Z,5.10
2018-05-24T23:36:33.768Z,5.93
2018-05-24T23:39:00.731Z,9.63
2018-05-24T23:41:26.934Z,4.73
2018-05-24T23:43:53.914Z,7.10
2018-05-24T23:46:20.101Z,5.63
2018-05-24T23:48:47.096Z,4.80
2018-05-24T23:51:13.357Z,5.50
2018-05-24T23:53:39.597Z,4.60
2018-05-24T23:56:05.838Z,4.97
2018-05-24T23:58:32.802Z,4.80
